Kezdőlap
METAR-TAF:

METAR-TAF

Repülőterek :

Payerne, Svájc

földrajzi szélesség: 46-49N, földrajzi hosszúság: 006-57E, magasság: 490 m

Jelenlegi meteorológiai megfigyelések

A jelentés 32 perccel ezelõtt készült, 20:20 UTC
Nyugat-délnyugati szél 14 kt
Hőmérséklet 4°C
Páratartalom 87%
Légköri nyomás 995 hPa
Látótávolság: 6000 m
Kevés felhő 1300 lábon
Szórványos felhőzet 1500 lábon
Borult 1800 lábon
esõ

METAR: LSMP 232020Z AUTO 24014KT 6000NDV RA FEW013 SCT015 OVC018 04/02 Q0995 RMK

Idő: 21:52 (20:52 UTC)


TAF: hiányzik

Meteorológiai megfigyelések és előrejelzések több, mint 4000 repülőtéren (METAR és TAF jelentéseket).

A térképen piros és sárga pontok jelzik az elérhető meteorológiai állomásokat.

Mozgassa az egeret a pont fölött, hogy megjelenjen az állomás neve.

Azután kattintson az időjárási megfigyelések és előrejelzések megtekintéséhez.

A térkép megváltoztatása: kattintson a fekete keresztel jelölt zöld gombra ráközelítéshez, a vonallal jelölt zöld gombra távolításhoz, vagy a zöld nyilakra a szomszédos térképek eléréséhez.


METAR-TAF: